Time;durP1;ratioP1;P1;durP2;ratioP2;P2;SDS_P1;SDS_P2;PMS_P1;PMS_P2;Temp;Humidity;BMP_temperature;BMP_pressure;BME280_temperature;BME280_humidity;BME280_pressure;Samples;Min_cycle;Max_cycle;Signal;HPM_P1;HPM_P2
2023/07/09 00:01:14;;;;;;;13.20;9.45;;;24.40;98.40;;;;;;5091989;28;20055;-68
2023/07/09 00:03:41;;;;;;;11.27;9.93;;;24.40;98.70;;;;;;5091873;28;20059;-68
2023/07/09 00:06:08;;;;;;;12.98;9.50;;;24.30;98.40;;;;;;5091187;28;20051;-69
2023/07/09 00:08:35;;;;;;;11.20;9.00;;;24.30;98.50;;;;;;5091195;28;20067;-68
2023/07/09 00:11:01;;;;;;;11.40;9.60;;;24.30;98.40;;;;;;5091764;28;20051;-68
2023/07/09 00:13:27;;;;;;;13.45;9.65;;;24.30;98.40;;;;;;5091664;28;20051;-69
2023/07/09 00:16:00;;;;;;;11.95;9.40;;;24.30;98.40;;;;;;5091234;28;20060;-69
2023/07/09 00:18:29;;;;;;;14.60;9.23;;;24.20;98.50;;;;;;5073279;28;20456;-68
2023/07/09 00:20:55;;;;;;;13.35;9.70;;;24.20;98.40;;;;;;5091361;28;20409;-68
2023/07/09 00:23:22;;;;;;;11.77;9.65;;;24.20;98.40;;;;;;5091346;28;20048;-68
2023/07/09 00:25:48;;;;;;;12.25;9.35;;;24.20;98.50;;;;;;5091109;28;20040;-69
2023/07/09 00:28:17;;;;;;;11.13;9.13;;;24.10;98.40;;;;;;5091251;28;20383;-68
2023/07/09 00:30:48;;;;;;;11.32;9.45;;;24.10;98.50;;;;;;5091620;28;20127;-69
2023/07/09 00:33:19;;;;;;;11.55;9.32;;;24.10;98.50;;;;;;5091247;28;20059;-67
2023/07/09 00:35:48;;;;;;;11.15;9.70;;;24.00;98.70;;;;;;5072639;28;20052;-68
2023/07/09 00:38:23;;;;;;;12.20;9.32;;;24.00;98.70;;;;;;5091190;28;20052;-68
2023/07/09 00:40:59;;;;;;;12.63;9.45;;;24.00;98.90;;;;;;5091534;28;20381;-67
2023/07/09 00:43:30;;;;;;;11.52;9.73;;;23.90;99.00;;;;;;5069003;28;20099;-68
2023/07/09 00:46:22;;;;;;;11.93;9.10;;;24.00;98.90;;;;;;5079424;28;20048;-69
2023/07/09 00:49:04;;;;;;;11.15;9.30;;;23.90;98.90;;;;;;5064692;28;20045;-68
2023/07/09 00:51:33;;;;;;;11.15;9.07;;;23.90;99.00;;;;;;5083058;28;20082;-68
2023/07/09 00:54:08;;;;;;;10.70;9.52;;;23.70;98.80;;;;;;5064218;28;20109;-68
2023/07/09 00:56:40;;;;;;;12.77;9.85;;;23.80;99.00;;;;;;5083569;28;20055;-68
2023/07/09 00:59:10;;;;;;;11.65;9.95;;;23.80;99.00;;;;;;5083236;28;20102;-69
2023/07/09 01:01:40;;;;;;;13.25;9.45;;;23.80;99.10;;;;;;5084155;28;20342;-68
2023/07/09 01:04:08;;;;;;;12.80;9.00;;;23.70;99.20;;;;;;5083206;28;20036;-69
2023/07/09 01:06:44;;;;;;;11.15;9.75;;;23.70;99.20;;;;;;5066294;28;20059;-68
2023/07/09 01:09:10;;;;;;;12.27;9.32;;;23.70;99.30;;;;;;5086198;28;20056;-68
2023/07/09 01:11:38;;;;;;;11.32;9.80;;;23.60;99.40;;;;;;5094694;28;20044;-68
2023/07/09 01:14:07;;;;;;;10.65;9.20;;;23.50;99.60;;;;;;5076650;28;20044;-69
2023/07/09 01:16:37;;;;;;;11.85;9.13;;;23.50;99.80;;;;;;5076453;28;20052;-68
2023/07/09 01:19:05;;;;;;;12.32;9.98;;;23.50;99.90;;;;;;5094082;28;20047;-68
2023/07/09 01:21:32;;;;;;;11.57;10.05;;;23.50;99.90;;;;;;5076560;28;20118;-68
2023/07/09 01:23:58;;;;;;;11.70;9.82;;;23.40;99.90;;;;;;5076502;28;20197;-68
2023/07/09 01:26:27;;;;;;;10.95;9.35;;;23.30;99.90;;;;;;5093681;28;20462;-69
2023/07/09 01:28:55;;;;;;;11.52;10.32;;;23.20;99.90;;;;;;5075987;28;20294;-69
2023/07/09 01:31:23;;;;;;;12.27;9.77;;;23.10;99.90;;;;;;5094304;28;20048;-68
2023/07/09 01:33:49;;;;;;;13.70;9.88;;;23.10;99.90;;;;;;5094088;28;20489;-68
2023/07/09 01:36:23;;;;;;;12.50;9.98;;;23.00;99.90;;;;;;5093364;28;20048;-68
2023/07/09 01:38:50;;;;;;;12.82;10.57;;;23.00;99.90;;;;;;5093954;28;20052;-68
2023/07/09 01:41:19;;;;;;;12.13;10.07;;;22.90;99.90;;;;;;5076419;28;20048;-68
2023/07/09 01:43:52;;;;;;;13.35;10.40;;;22.90;99.90;;;;;;5076074;28;20063;-68
2023/07/09 01:46:19;;;;;;;15.20;10.00;;;22.90;99.90;;;;;;5093650;28;20044;-69
2023/07/09 01:48:45;;;;;;;11.63;9.52;;;22.80;99.90;;;;;;5075833;28;20040;-68
2023/07/09 01:51:16;;;;;;;13.18;9.93;;;22.80;99.90;;;;;;5093913;28;20048;-68
2023/07/09 01:53:46;;;;;;;12.65;10.13;;;22.80;99.90;;;;;;5076145;28;20055;-68
2023/07/09 01:56:13;;;;;;;12.55;10.27;;;22.80;99.90;;;;;;5093423;28;20048;-69
2023/07/09 01:58:41;;;;;;;12.73;10.73;;;22.80;99.90;;;;;;5075531;28;20058;-68
2023/07/09 02:01:08;;;;;;;13.38;10.55;;;22.80;99.90;;;;;;5093862;28;20052;-68
2023/07/09 02:03:34;;;;;;;12.10;10.80;;;22.70;99.90;;;;;;5093679;28;20044;-69
2023/07/09 02:06:02;;;;;;;11.02;9.50;;;22.70;99.90;;;;;;5075253;28;20074;-68
2023/07/09 02:08:28;;;;;;;13.73;10.82;;;22.70;99.90;;;;;;5075233;28;20048;-68
2023/07/09 02:10:54;;;;;;;11.27;10.07;;;22.70;99.90;;;;;;5075680;28;20052;-68
2023/07/09 02:13:21;;;;;;;13.05;10.35;;;22.60;99.90;;;;;;5093477;28;20054;-68
2023/07/09 02:15:47;;;;;;;14.73;9.75;;;22.60;99.90;;;;;;5075086;28;20429;-68
2023/07/09 02:18:14;;;;;;;13.35;10.13;;;22.60;99.90;;;;;;5093056;28;20560;-68
2023/07/09 02:20:40;;;;;;;12.30;10.18;;;22.60;99.90;;;;;;5093473;28;20048;-68
2023/07/09 02:23:08;;;;;;;11.02;9.70;;;22.60;99.90;;;;;;5093110;28;20045;-68
2023/07/09 02:25:34;;;;;;;12.55;10.70;;;22.50;99.90;;;;;;5093006;28;20048;-68
2023/07/09 02:28:00;;;;;;;12.20;10.55;;;22.50;99.90;;;;;;5093089;28;20047;-69
2023/07/09 02:30:27;;;;;;;11.77;10.57;;;22.40;99.90;;;;;;5093470;28;20113;-69
2023/07/09 02:32:54;;;;;;;12.77;10.93;;;22.40;99.90;;;;;;5092884;28;20484;-68
2023/07/09 02:35:25;;;;;;;12.05;10.75;;;22.40;99.90;;;;;;5092151;28;20066;-68
2023/07/09 02:37:51;;;;;;;12.57;10.50;;;22.40;99.90;;;;;;5075196;28;20051;-68
2023/07/09 02:40:18;;;;;;;12.77;10.43;;;22.30;99.90;;;;;;5092704;28;20436;-68
2023/07/09 02:42:44;;;;;;;12.80;10.93;;;22.20;99.90;;;;;;5075066;28;20142;-69
2023/07/09 02:45:11;;;;;;;13.43;10.65;;;22.30;99.90;;;;;;5074799;28;20051;-68
2023/07/09 02:47:37;;;;;;;12.75;11.43;;;22.20;99.90;;;;;;5092489;28;20048;-68
2023/07/09 02:50:04;;;;;;;13.18;10.63;;;22.10;99.90;;;;;;5074576;28;20128;-69
2023/07/09 02:52:30;;;;;;;12.95;10.85;;;22.10;99.90;;;;;;5092701;28;20052;-68
2023/07/09 02:54:56;;;;;;;12.32;10.25;;;22.00;99.90;;;;;;5092083;28;20056;-68
2023/07/09 02:57:23;;;;;;;14.18;11.43;;;22.00;99.90;;;;;;5092421;28;20048;-68
2023/07/09 02:59:49;;;;;;;11.60;10.38;;;22.00;99.90;;;;;;5074853;28;20109;-68
2023/07/09 03:02:15;;;;;;;14.82;11.55;;;22.00;99.90;;;;;;5092452;28;20054;-68
2023/07/09 03:04:41;;;;;;;12.25;10.75;;;21.90;99.90;;;;;;5092401;28;20063;-68
2023/07/09 03:07:11;;;;;;;13.60;11.48;;;21.80;99.90;;;;;;5074824;28;20055;-68
2023/07/09 03:09:38;;;;;;;13.35;11.77;;;21.80;99.90;;;;;;5074483;28;20040;-68
2023/07/09 03:12:04;;;;;;;12.30;11.00;;;21.80;99.90;;;;;;5074790;28;20081;-68
2023/07/09 03:14:31;;;;;;;12.48;11.18;;;21.80;99.90;;;;;;5091722;28;20048;-68
2023/07/09 03:16:58;;;;;;;13.30;11.35;;;21.70;99.90;;;;;;5074326;28;20048;-69
2023/07/09 03:19:25;;;;;;;13.63;11.75;;;21.70;99.90;;;;;;5073959;28;20054;-68
2023/07/09 03:21:51;;;;;;;15.02;11.98;;;21.60;99.90;;;;;;5092092;28;20052;-68
2023/07/09 03:24:18;;;;;;;13.93;11.05;;;21.60;99.90;;;;;;5074038;28;20426;-68
2023/07/09 03:26:45;;;;;;;12.93;11.40;;;21.70;99.90;;;;;;5073728;28;20048;-69
2023/07/09 03:29:12;;;;;;;14.82;11.55;;;21.60;99.90;;;;;;5074283;28;20513;-68
2023/07/09 03:31:39;;;;;;;14.23;12.35;;;21.70;99.90;;;;;;5092050;28;20244;-68
2023/07/09 03:34:05;;;;;;;14.48;11.52;;;21.60;99.90;;;;;;5091972;28;20415;-68
2023/07/09 03:36:31;;;;;;;14.88;11.82;;;21.60;99.90;;;;;;5091027;28;20105;-68
2023/07/09 03:38:57;;;;;;;13.63;12.23;;;21.60;99.90;;;;;;5091657;28;20048;-68
2023/07/09 03:41:24;;;;;;;12.68;11.43;;;21.60;99.90;;;;;;5091620;28;20388;-68
2023/07/09 03:43:52;;;;;;;13.60;11.73;;;21.60;99.90;;;;;;5092076;28;20040;-68
2023/07/09 03:46:19;;;;;;;13.27;11.90;;;21.60;99.90;;;;;;5091616;28;20364;-69
2023/07/09 03:48:45;;;;;;;13.50;12.00;;;21.60;99.90;;;;;;5091513;28;20526;-69
2023/07/09 03:51:11;;;;;;;15.35;11.90;;;21.60;99.90;;;;;;5091907;28;20071;-68
2023/07/09 03:53:37;;;;;;;12.52;11.32;;;21.60;99.90;;;;;;5091983;28;20485;-68
2023/07/09 03:56:04;;;;;;;13.60;11.55;;;21.60;99.90;;;;;;5091397;28;20056;-69
2023/07/09 03:58:30;;;;;;;13.68;12.20;;;21.60;99.90;;;;;;5073550;28;20055;-68
2023/07/09 04:00:56;;;;;;;13.32;11.20;;;21.60;99.90;;;;;;5091770;28;20056;-69
2023/07/09 04:03:23;;;;;;;15.10;11.77;;;21.60;99.90;;;;;;5091545;28;20397;-68
2023/07/09 04:05:50;;;;;;;14.20;12.05;;;21.50;99.90;;;;;;5091381;28;20044;-68
2023/07/09 04:08:17;;;;;;;12.68;11.32;;;21.60;99.90;;;;;;5091592;28;20052;-68
2023/07/09 04:10:43;;;;;;;13.60;11.65;;;21.60;99.90;;;;;;5091897;28;20051;-68
2023/07/09 04:13:09;;;;;;;13.18;11.88;;;21.60;99.90;;;;;;5091966;28;20048;-68
2023/07/09 04:15:35;;;;;;;13.38;11.82;;;21.70;99.90;;;;;;5091140;28;20047;-68
2023/07/09 04:18:02;;;;;;;12.77;11.48;;;21.70;99.90;;;;;;5091619;28;20048;-68
2023/07/09 04:20:28;;;;;;;13.35;11.57;;;21.70;99.90;;;;;;5091686;28;20106;-68
2023/07/09 04:22:54;;;;;;;16.13;11.90;;;21.70;99.90;;;;;;5091460;28;20048;-68
2023/07/09 04:25:21;;;;;;;16.13;11.02;;;21.80;99.90;;;;;;5092617;28;20418;-68
2023/07/09 04:27:49;;;;;;;14.52;11.57;;;21.80;99.90;;;;;;5095441;28;20044;-69
2023/07/09 04:30:15;;;;;;;13.52;12.10;;;21.90;99.90;;;;;;5077524;28;20051;-68
2023/07/09 04:32:43;;;;;;;13.30;11.48;;;21.90;99.90;;;;;;5095710;28;20367;-68
2023/07/09 04:35:11;;;;;;;12.40;11.10;;;22.00;99.90;;;;;;5094717;28;20121;-69
2023/07/09 04:37:38;;;;;;;12.60;11.02;;;22.10;99.90;;;;;;5095068;28;20674;-68
2023/07/09 04:40:10;;;;;;;13.38;11.90;;;22.20;99.90;;;;;;5095474;28;20113;-69
2023/07/09 04:42:38;;;;;;;12.52;10.80;;;22.30;99.90;;;;;;5095510;28;20105;-69
2023/07/09 04:45:05;;;;;;;13.73;11.60;;;22.30;99.90;;;;;;5077151;28;20048;-68
2023/07/09 04:47:31;;;;;;;12.68;11.20;;;22.40;99.90;;;;;;5094677;28;20098;-68
2023/07/09 04:49:57;;;;;;;16.63;11.43;;;22.40;99.90;;;;;;5094968;28;20048;-68
2023/07/09 04:52:24;;;;;;;13.70;11.88;;;22.40;99.90;;;;;;5095068;28;20040;-68
2023/07/09 04:54:50;;;;;;;16.85;11.80;;;22.50;99.90;;;;;;5076555;28;20109;-69
2023/07/09 04:57:17;;;;;;;12.90;11.38;;;22.50;99.90;;;;;;5076964;28;20047;-68
2023/07/09 04:59:43;;;;;;;14.68;10.85;;;22.70;99.90;;;;;;5076943;28;20079;-68
2023/07/09 05:02:10;;;;;;;14.18;12.20;;;22.70;99.90;;;;;;5060248;28;20048;-68
2023/07/09 05:04:36;;;;;;;14.75;11.63;;;22.90;99.90;;;;;;5076094;28;20466;-68
2023/07/09 05:07:03;;;;;;;13.00;11.30;;;23.00;99.90;;;;;;5094831;28;20689;-68
2023/07/09 05:09:29;;;;;;;14.07;11.75;;;23.10;99.90;;;;;;5094377;28;20076;-69
2023/07/09 05:11:55;;;;;;;14.30;11.57;;;23.30;99.90;;;;;;5094642;28;20050;-68
2023/07/09 05:14:21;;;;;;;13.82;10.77;;;23.30;99.90;;;;;;5094080;28;20284;-68
2023/07/09 05:16:48;;;;;;;15.10;11.18;;;23.30;99.90;;;;;;5094652;28;20059;-68
2023/07/09 05:19:14;;;;;;;14.93;12.15;;;23.20;99.90;;;;;;5076439;28;20051;-68
2023/07/09 05:21:47;;;;;;;13.02;11.65;;;23.10;99.90;;;;;;5094283;28;20059;-68
2023/07/09 05:24:16;;;;;;;14.82;11.35;;;23.10;99.90;;;;;;5075976;28;20052;-68
2023/07/09 05:26:42;;;;;;;14.13;12.05;;;23.10;99.90;;;;;;5062363;28;20052;-69
2023/07/09 05:29:08;;;;;;;13.25;11.60;;;23.20;99.90;;;;;;5073692;28;20475;-68
2023/07/09 05:31:36;;;;;;;13.45;11.77;;;23.20;99.90;;;;;;5094327;28;20105;-69
2023/07/09 05:34:02;;;;;;;14.02;11.73;;;23.30;99.90;;;;;;5094022;28;20426;-68
2023/07/09 05:36:29;;;;;;;13.73;12.13;;;23.40;99.90;;;;;;5092818;28;20052;-69
2023/07/09 05:38:56;;;;;;;12.88;11.57;;;23.40;99.90;;;;;;5075738;28;20517;-68
2023/07/09 05:41:23;;;;;;;13.18;11.75;;;23.60;99.90;;;;;;5094163;28;20051;-68
2023/07/09 05:43:51;;;;;;;13.52;11.75;;;23.80;99.90;;;;;;5093937;28;20217;-68
2023/07/09 05:46:18;;;;;;;13.48;12.05;;;24.10;99.90;;;;;;5093615;28;20113;-68
2023/07/09 05:48:45;;;;;;;14.80;13.30;;;24.50;99.90;;;;;;5093619;28;20048;-69
2023/07/09 05:51:11;;;;;;;13.95;11.40;;;24.80;99.90;;;;;;5093582;28;20395;-69
2023/07/09 05:53:37;;;;;;;17.35;12.85;;;25.00;99.90;;;;;;5094111;28;20067;-69
2023/07/09 05:56:04;;;;;;;17.13;12.32;;;25.30;99.90;;;;;;5075503;28;20051;-68
2023/07/09 05:58:30;;;;;;;14.88;12.65;;;25.50;99.90;;;;;;5093586;28;20093;-68
2023/07/09 06:00:57;;;;;;;16.02;14.00;;;25.60;99.90;;;;;;5093855;28;20081;-68
2023/07/09 06:03:25;;;;;;;15.30;13.05;;;25.90;99.90;;;;;;5093576;28;20387;-69
2023/07/09 06:05:52;;;;;;;15.00;13.48;;;26.40;99.90;;;;;;5093137;28;20052;-69
2023/07/09 06:08:20;;;;;;;15.48;13.50;;;26.50;99.90;;;;;;5075356;28;20384;-68
2023/07/09 06:11:02;;;;;;;15.20;12.98;;;26.70;99.90;;;;;;5093428;28;20059;-69
2023/07/09 06:13:30;;;;;;;14.80;12.70;;;27.00;99.70;;;;;;5075335;28;20055;-69
2023/07/09 06:15:57;;;;;;;16.38;12.88;;;27.10;99.90;;;;;;5092721;28;20442;-68
2023/07/09 06:18:24;;;;;;;16.23;13.15;;;27.10;99.80;;;;;;5092814;28;20503;-68
2023/07/09 06:20:55;;;;;;;15.30;13.75;;;27.50;99.70;;;;;;5093231;28;20058;-69
2023/07/09 06:23:21;;;;;;;15.77;13.93;;;27.70;99.50;;;;;;5093343;28;20044;-69
2023/07/09 06:25:48;;;;;;;16.30;13.93;;;27.90;99.40;;;;;;5092978;28;20063;-68
2023/07/09 06:28:16;;;;;;;16.02;14.10;;;28.10;99.30;;;;;;5074884;28;20052;-69
2023/07/09 06:30:43;;;;;;;15.65;13.20;;;28.30;99.10;;;;;;5075421;28;20074;-69
2023/07/09 06:33:12;;;;;;;16.38;13.18;;;28.40;99.00;;;;;;5092859;28;20432;-68
2023/07/09 06:35:39;;;;;;;16.60;12.93;;;28.80;98.70;;;;;;5070384;28;20458;-68
2023/07/09 06:38:06;;;;;;;16.67;13.98;;;29.10;98.60;;;;;;5083539;28;20137;-68
2023/07/09 06:40:32;;;;;;;15.63;13.57;;;29.20;98.40;;;;;;5065521;28;20048;-68
2023/07/09 06:42:58;;;;;;;15.30;13.70;;;29.30;98.30;;;;;;5080904;28;20432;-69
2023/07/09 06:45:24;;;;;;;17.63;13.80;;;29.40;98.10;;;;;;5082171;28;20057;-68
2023/07/09 06:47:51;;;;;;;15.95;13.75;;;29.60;98.20;;;;;;5084170;28;20052;-68
2023/07/09 06:50:17;;;;;;;15.30;13.15;;;29.90;98.10;;;;;;5080307;28;20349;-68
2023/07/09 06:52:44;;;;;;;15.48;12.55;;;30.00;98.10;;;;;;5082301;28;20376;-67
2023/07/09 06:55:10;;;;;;;15.05;13.15;;;30.40;97.90;;;;;;5082452;28;20033;-67
2023/07/09 06:57:37;;;;;;;16.08;12.95;;;30.70;98.00;;;;;;5080955;28;20044;-67
2023/07/09 07:00:04;;;;;;;15.23;12.82;;;30.90;97.40;;;;;;5082570;28;20036;-69
2023/07/09 07:02:30;;;;;;;14.98;12.50;;;30.90;97.20;;;;;;5082574;28;20361;-67
2023/07/09 07:04:57;;;;;;;14.05;12.55;;;30.60;97.30;;;;;;5082813;28;20077;-67
2023/07/09 07:07:23;;;;;;;14.10;12.60;;;30.40;97.50;;;;;;5081341;28;20055;-67
2023/07/09 07:09:49;;;;;;;15.55;12.25;;;30.20;97.60;;;;;;5065389;28;20384;-67
2023/07/09 07:12:28;;;;;;;14.32;12.52;;;30.00;97.70;;;;;;5080976;28;20032;-67
2023/07/09 07:14:55;;;;;;;13.13;11.70;;;30.00;97.70;;;;;;5082717;28;20474;-66
2023/07/09 07:17:29;;;;;;;15.40;11.85;;;29.90;97.90;;;;;;5081513;28;20044;-66
2023/07/09 07:19:55;;;;;;;14.10;11.60;;;30.00;97.80;;;;;;5080795;28;20052;-67
2023/07/09 07:22:21;;;;;;;14.80;11.32;;;29.90;98.00;;;;;;5081158;28;20040;-67
2023/07/09 07:24:47;;;;;;;13.73;11.95;;;30.10;97.90;;;;;;5080079;28;20448;-67
2023/07/09 07:27:14;;;;;;;11.88;10.40;;;30.20;97.70;;;;;;5080419;28;20048;-67
2023/07/09 07:29:40;;;;;;;14.27;11.02;;;30.30;97.60;;;;;;5088923;28;20044;-67
2023/07/09 07:32:07;;;;;;;12.30;11.00;;;30.30;97.70;;;;;;5092109;28;20044;-67
2023/07/09 07:34:33;;;;;;;14.15;11.65;;;30.30;97.50;;;;;;5091365;28;20064;-69
2023/07/09 07:36:59;;;;;;;12.77;10.20;;;30.30;97.30;;;;;;5092611;28;20044;-67
2023/07/09 07:39:25;;;;;;;13.27;10.13;;;30.40;97.30;;;;;;5091909;28;20075;-67
2023/07/09 07:41:52;;;;;;;12.30;9.95;;;30.50;97.30;;;;;;5083098;28;20044;-66
2023/07/09 07:44:18;;;;;;;11.63;10.43;;;30.50;97.40;;;;;;5053877;28;20048;-66
2023/07/09 07:46:45;;;;;;;12.82;10.27;;;30.50;97.30;;;;;;5077492;28;20055;-66
2023/07/09 07:49:11;;;;;;;12.15;10.80;;;30.60;97.30;;;;;;5062194;28;20063;-67
2023/07/09 07:51:38;;;;;;;12.60;11.15;;;30.70;97.10;;;;;;5064583;28;20055;-67
2023/07/09 07:54:05;;;;;;;12.52;10.57;;;30.70;97.00;;;;;;5082493;28;20048;-67
2023/07/09 07:56:31;;;;;;;11.93;10.65;;;30.70;97.10;;;;;;5079942;28;20105;-66
2023/07/09 07:58:57;;;;;;;13.48;10.40;;;30.70;97.30;;;;;;5077087;28;20076;-67
2023/07/09 08:01:23;;;;;;;13.90;11.65;;;30.70;97.40;;;;;;5083009;28;20055;-66
2023/07/09 08:03:50;;;;;;;12.50;10.95;;;30.80;97.50;;;;;;5084583;28;20045;-67
2023/07/09 08:06:16;;;;;;;15.50;10.73;;;30.90;97.40;;;;;;5080077;28;20044;-67
2023/07/09 08:08:42;;;;;;;12.60;11.30;;;31.00;97.40;;;;;;5088930;28;20106;-66
2023/07/09 08:11:09;;;;;;;13.57;10.85;;;31.10;97.30;;;;;;5096637;28;20048;-67
2023/07/09 08:13:36;;;;;;;14.73;10.68;;;31.30;97.20;;;;;;5095813;28;20480;-67
2023/07/09 08:16:03;;;;;;;15.82;10.75;;;31.30;97.20;;;;;;5095495;28;20048;-67
2023/07/09 08:18:29;;;;;;;11.10;9.93;;;31.30;97.30;;;;;;5096016;28;20094;-66
2023/07/09 08:20:55;;;;;;;14.88;10.85;;;31.40;97.10;;;;;;5095284;28;20460;-66
2023/07/09 08:23:22;;;;;;;12.60;10.00;;;31.60;96.90;;;;;;5095360;28;21963;-66
2023/07/09 08:25:55;;;;;;;11.95;9.73;;;31.70;96.70;;;;;;5095437;28;20100;-67
2023/07/09 08:28:22;;;;;;;11.48;9.95;;;31.70;96.60;;;;;;5086852;28;20463;-67
2023/07/09 08:30:48;;;;;;;12.82;10.00;;;31.50;96.70;;;;;;5086783;28;20045;-67
2023/07/09 08:33:14;;;;;;;14.57;10.20;;;31.50;96.90;;;;;;5083181;28;20048;-66
2023/07/09 08:35:44;;;;;;;13.68;9.85;;;31.50;96.90;;;;;;5081832;28;20045;-66
2023/07/09 08:38:10;;;;;;;12.95;9.38;;;31.40;96.80;;;;;;5085822;28;20044;-66
2023/07/09 08:40:41;;;;;;;16.13;10.10;;;31.40;96.90;;;;;;5082596;28;20500;-66
2023/07/09 08:43:22;;;;;;;12.48;10.13;;;31.40;96.80;;;;;;5068640;28;20048;-66
2023/07/09 08:46:05;;;;;;;14.80;11.65;;;31.30;96.90;;;;;;5079597;28;20440;-66
2023/07/09 08:48:39;;;;;;;13.80;10.27;;;31.40;96.60;;;;;;5083470;28;20067;-66
2023/07/09 08:51:15;;;;;;;16.65;9.55;;;31.30;96.60;;;;;;5095683;28;20382;-66
2023/07/09 08:54:06;;;;;;;13.60;10.43;;;31.40;96.90;;;;;;5095637;28;20464;-66
2023/07/09 08:56:34;;;;;;;11.82;9.77;;;31.40;96.60;;;;;;5094832;28;20620;-67
2023/07/09 08:59:02;;;;;;;13.35;10.80;;;31.20;96.70;;;;;;5068971;28;20056;-66
2023/07/09 09:01:36;;;;;;;16.67;11.07;;;31.00;96.70;;;;;;5094895;28;20056;-66
2023/07/09 09:04:13;;;;;;;12.45;11.13;;;30.90;96.90;;;;;;5085960;28;20041;-66
2023/07/09 09:06:44;;;;;;;13.48;10.15;;;30.90;97.00;;;;;;5084536;28;20040;-65
2023/07/09 09:09:32;;;;;;;14.77;9.65;;;30.90;96.70;;;;;;5093924;28;20354;-65
2023/07/09 09:12:22;;;;;;;14.40;10.18;;;31.10;96.90;;;;;;5088742;28;20055;-65
2023/07/09 09:14:58;;;;;;;12.15;10.85;;;31.20;96.50;;;;;;5093974;28;20056;-66
2023/07/09 09:17:28;;;;;;;12.65;10.57;;;31.10;96.80;;;;;;5085523;28;20044;-66
2023/07/09 09:20:04;;;;;;;16.92;11.73;;;31.00;96.70;;;;;;5086237;28;20052;-66
2023/07/09 09:23:01;;;;;;;16.63;11.32;;;31.10;96.90;;;;;;5094216;28;20112;-65
2023/07/09 09:25:30;;;;;;;15.65;12.52;;;31.00;97.00;;;;;;5075593;28;20404;-66
2023/07/09 09:27:56;;;;;;;14.88;12.57;;;31.00;97.40;;;;;;5081846;28;20048;-66
2023/07/09 09:30:24;;;;;;;14.80;12.13;;;30.80;97.50;;;;;;5082830;28;20332;-66
2023/07/09 09:32:55;;;;;;;12.88;11.25;;;30.80;97.60;;;;;;5078328;28;20067;-66
2023/07/09 09:35:27;;;;;;;15.45;11.98;;;31.00;97.80;;;;;;5078407;28;20472;-66
2023/07/09 09:37:56;;;;;;;13.20;11.48;;;31.10;98.00;;;;;;5074659;28;20048;-66
2023/07/09 09:40:25;;;;;;;13.38;11.65;;;31.20;97.80;;;;;;5074050;28;20048;-66
2023/07/09 09:42:54;;;;;;;13.88;11.65;;;31.20;97.80;;;;;;5082399;28;20052;-66
2023/07/09 09:45:24;;;;;;;15.00;11.68;;;31.20;97.80;;;;;;5081314;28;20078;-66
2023/07/09 09:47:50;;;;;;;13.48;11.40;;;31.10;97.70;;;;;;5083172;28;20032;-66
2023/07/09 09:50:19;;;;;;;14.55;11.38;;;31.10;97.90;;;;;;5084262;28;20062;-66
2023/07/09 09:52:47;;;;;;;14.18;11.45;;;31.10;97.90;;;;;;5081684;28;20052;-67
2023/07/09 09:55:19;;;;;;;13.15;11.75;;;31.10;97.90;;;;;;5073074;28;20056;-66
2023/07/09 09:57:50;;;;;;;15.32;12.02;;;31.10;97.90;;;;;;5075545;28;20117;-66
2023/07/09 10:00:17;;;;;;;;;;;31.40;97.80;;;;;;5083636;28;20044;-66
2023/07/09 10:02:45;;;;;;;13.80;11.77;;;31.40;97.80;;;;;;5081413;28;20332;-67
2023/07/09 10:05:13;;;;;;;13.40;11.50;;;31.40;97.70;;;;;;5083275;28;20051;-66
2023/07/09 10:07:58;;;;;;;13.40;11.38;;;31.30;97.70;;;;;;5083782;28;20105;-67
2023/07/09 10:10:26;;;;;;;;;;;31.30;97.90;;;;;;5084736;28;20048;-67
2023/07/09 10:13:01;;;;;;;15.13;12.60;;;31.20;98.00;;;;;;5065914;28;19927;-67
2023/07/09 10:15:45;;;;;;;15.38;12.20;;;31.40;98.20;;;;;;5083869;28;20040;-68
2023/07/09 10:18:37;;;;;;;12.55;11.23;;;31.40;97.90;;;;;;5083011;28;20355;-67
2023/07/09 10:21:09;;;;;;;13.05;10.95;;;31.60;97.90;;;;;;5083767;28;20075;-67
2023/07/09 10:23:41;;;;;;;17.65;13.88;;;31.80;97.90;;;;;;5082561;28;20353;-67
2023/07/09 10:26:15;;;;;;;13.73;10.50;;;31.60;97.60;;;;;;5082147;28;20044;-68
2023/07/09 10:29:14;;;;;;;13.32;11.15;;;31.80;97.60;;;;;;5086051;28;20041;-66
2023/07/09 10:32:01;;;;;;;14.13;10.27;;;32.10;97.50;;;;;;5093361;28;20040;-66
2023/07/09 10:34:40;;;;;;;13.52;10.95;;;32.30;97.30;;;;;;5092611;28;20201;-66
2023/07/09 10:37:06;;;;;;;12.23;9.18;;;32.40;96.90;;;;;;5092968;28;20422;-67
2023/07/09 10:39:37;;;;;;;10.23;8.90;;;32.60;96.90;;;;;;5082823;28;20044;-66
2023/07/09 10:42:16;;;;;;;10.45;9.25;;;32.80;96.90;;;;;;5081161;28;20408;-67
2023/07/09 10:44:48;;;;;;;11.00;9.50;;;32.90;96.40;;;;;;5082819;28;20041;-67
2023/07/09 10:47:31;;;;;;;11.75;9.82;;;32.90;96.40;;;;;;5081980;28;20044;-66
2023/07/09 10:49:59;;;;;;;11.52;9.50;;;33.00;96.70;;;;;;5083348;28;20049;-66
2023/07/09 10:52:31;;;;;;;13.18;9.98;;;32.90;96.60;;;;;;5083926;28;20123;-66
2023/07/09 10:55:24;;;;;;;12.10;9.35;;;32.80;96.70;;;;;;5074605;28;20045;-65
2023/07/09 10:58:09;;;;;;;11.45;9.20;;;32.80;96.50;;;;;;5078943;28;20060;-65
2023/07/09 11:00:37;;;;;;;9.88;8.48;;;32.90;96.30;;;;;;5089523;28;20052;-66
2023/07/09 11:03:14;;;;;;;11.60;8.98;;;33.00;96.30;;;;;;5092564;28;20380;-67
2023/07/09 11:05:41;;;;;;;;;;;33.10;96.10;;;;;;5092582;28;20047;-66
2023/07/09 11:08:13;;;;;;;10.65;7.93;;;33.20;95.70;;;;;;5088984;28;19938;-65
2023/07/09 11:10:47;;;;;;;10.05;7.57;;;33.20;95.50;;;;;;5090097;28;20040;-66
2023/07/09 11:13:18;;;;;;;8.73;7.53;;;33.30;95.30;;;;;;5092612;28;20055;-66
2023/07/09 11:15:53;;;;;;;11.27;8.02;;;33.40;95.90;;;;;;5092026;28;20048;-66
2023/07/09 11:18:30;;;;;;;10.07;8.15;;;33.50;95.80;;;;;;5087259;28;20040;-69
2023/07/09 11:21:16;;;;;;;11.38;8.60;;;33.60;96.00;;;;;;5091843;28;20112;-66
2023/07/09 11:23:50;;;;;;;9.65;7.85;;;33.50;96.00;;;;;;5073715;28;20047;-66
2023/07/09 11:26:25;;;;;;;10.05;7.95;;;33.60;96.10;;;;;;5092406;28;20445;-66
2023/07/09 11:29:16;;;;;;;10.65;8.18;;;33.60;95.90;;;;;;5085255;28;20045;-66
2023/07/09 11:31:46;;;;;;;10.85;8.35;;;33.70;95.90;;;;;;5091600;28;20052;-66
2023/07/09 11:34:20;;;;;;;11.13;7.82;;;33.60;96.00;;;;;;5091793;28;20051;-67
2023/07/09 11:36:55;;;;;;;10.05;8.10;;;33.70;96.20;;;;;;5074234;28;20113;-66
2023/07/09 11:39:41;;;;;;;10.07;8.65;;;33.60;96.10;;;;;;5091868;28;20047;-67
2023/07/09 11:42:28;;;;;;;8.70;7.80;;;33.80;96.20;;;;;;5074353;28;20084;-67
2023/07/09 11:45:11;;;;;;;9.45;8.45;;;33.60;95.60;;;;;;5091173;28;20379;-66
2023/07/09 11:48:04;;;;;;;10.82;8.52;;;33.70;96.00;;;;;;5092050;28;20055;-67
2023/07/09 11:50:46;;;;;;;10.10;9.10;;;33.80;95.90;;;;;;5057899;28;20427;-66
2023/07/09 11:53:51;;;;;;;11.63;7.57;;;34.00;96.00;;;;;;5057087;28;20044;-67
2023/07/09 11:56:25;;;;;;;11.15;8.02;;;34.10;95.90;;;;;;5071829;28;20048;-66
2023/07/09 11:58:54;;;;;;;10.18;7.10;;;34.00;95.80;;;;;;5080949;28;20537;-67
2023/07/09 12:01:31;;;;;;;9.13;7.28;;;34.10;95.80;;;;;;5092046;28;20050;-66
2023/07/09 12:03:58;;;;;;;9.63;7.18;;;34.30;95.60;;;;;;5092315;28;20055;-67
2023/07/09 12:06:28;;;;;;;9.45;7.22;;;34.40;95.50;;;;;;5091537;28;20040;-67
2023/07/09 12:08:55;;;;;;;10.48;7.63;;;34.50;95.30;;;;;;5085147;28;20055;-66
2023/07/09 12:11:30;;;;;;;9.18;7.30;;;34.40;95.00;;;;;;5091976;28;20048;-66
2023/07/09 12:14:10;;;;;;;9.18;6.85;;;34.40;94.90;;;;;;5091974;28;20104;-67
2023/07/09 12:16:48;;;;;;;9.13;6.85;;;34.50;94.80;;;;;;5091656;28;20411;-66
2023/07/09 12:19:46;;;;;;;8.95;7.25;;;34.50;95.10;;;;;;5091425;28;20150;-66
2023/07/09 12:22:20;;;;;;;9.40;6.50;;;34.40;94.30;;;;;;5091715;28;20346;-66
2023/07/09 12:24:49;;;;;;;8.35;6.82;;;34.60;94.00;;;;;;5091179;28;20690;-66
2023/07/09 12:27:22;;;;;;;9.50;7.32;;;34.60;94.30;;;;;;5092012;28;20056;-66
2023/07/09 12:29:52;;;;;;;8.00;6.95;;;34.60;94.40;;;;;;5091405;28;20044;-66
2023/07/09 12:32:20;;;;;;;7.90;6.40;;;34.60;94.30;;;;;;5091769;28;20059;-65
2023/07/09 12:34:49;;;;;;;8.18;7.20;;;34.60;93.90;;;;;;5090909;28;20048;-66
2023/07/09 12:37:16;;;;;;;8.45;6.80;;;34.70;93.80;;;;;;5073666;28;20052;-67
2023/07/09 12:39:43;;;;;;;8.10;7.05;;;34.90;94.00;;;;;;5091397;28;20055;-67
2023/07/09 12:42:17;;;;;;;8.93;7.30;;;35.00;94.20;;;;;;5091697;28;20043;-67
2023/07/09 12:44:44;;;;;;;8.60;6.68;;;34.90;93.50;;;;;;5090716;28;20497;-67